Time;durP1;ratioP1;P1;durP2;ratioP2;P2;SDS_P1;SDS_P2;PMS_P1;PMS_P2;Temp;Humidity;BMP_temperature;BMP_pressure;BME280_temperature;BME280_humidity;BME280_pressure;Samples;Min_cycle;Max_cycle;Signal;HPM_P1;HPM_P2
2023/06/01 08:37:57;;;;;;;7.70;4.07;;;18.50;99.90;;;;;;4974153;28;20288;-67
2023/06/01 08:40:24;;;;;;;9.20;3.97;;;18.40;99.90;;;;;;4975189;28;20211;-69
2023/06/01 08:42:59;;;;;;;6.97;4.40;;;18.70;99.90;;;;;;4975389;28;20215;-68
2023/06/01 08:45:27;;;;;;;8.18;3.90;;;19.40;99.90;;;;;;4975204;28;20230;-68
2023/06/01 08:47:55;;;;;;;8.00;4.35;;;19.90;99.90;;;;;;4975521;28;20218;-68
2023/06/01 08:50:23;;;;;;;5.93;3.72;;;20.30;99.90;;;;;;4975587;28;20203;-68
2023/06/01 08:52:53;;;;;;;5.97;3.72;;;20.20;99.90;;;;;;4975205;28;20217;-68
2023/06/01 08:55:20;;;;;;;6.38;3.67;;;19.50;99.90;;;;;;4975387;28;20305;-68
2023/06/01 08:57:47;;;;;;;7.93;4.05;;;19.70;99.90;;;;;;4974854;28;20736;-68
2023/06/01 09:00:15;;;;;;;6.15;3.90;;;19.60;99.90;;;;;;4975155;28;20207;-68
2023/06/01 09:02:42;;;;;;;8.02;4.47;;;20.60;99.90;;;;;;4974938;28;20213;-68
2023/06/01 09:05:11;;;;;;;7.75;3.75;;;20.80;99.90;;;;;;4974803;28;20330;-68
2023/06/01 09:07:38;;;;;;;6.15;3.78;;;20.40;99.90;;;;;;4974886;28;20700;-68
2023/06/01 09:10:06;;;;;;;6.20;3.95;;;20.50;99.90;;;;;;4974596;28;20298;-69
2023/06/01 09:12:33;;;;;;;6.35;4.10;;;20.50;99.90;;;;;;4974787;28;20674;-68
2023/06/01 09:15:11;;;;;;;9.20;4.10;;;20.50;99.90;;;;;;4974990;28;20238;-68
2023/06/01 09:17:39;;;;;;;6.65;4.05;;;20.70;99.90;;;;;;4974657;28;20589;-68
2023/06/01 09:20:07;;;;;;;6.78;3.97;;;20.80;99.90;;;;;;4974786;28;20298;-68
2023/06/01 09:22:43;;;;;;;7.90;4.40;;;21.00;99.90;;;;;;4974550;28;20211;-69
2023/06/01 09:25:12;;;;;;;6.72;4.05;;;21.00;99.90;;;;;;4974385;28;20285;-68
2023/06/01 09:27:45;;;;;;;5.90;4.10;;;21.50;99.90;;;;;;4974444;28;20729;-68
2023/06/01 09:30:13;;;;;;;9.63;3.67;;;21.70;99.90;;;;;;4974632;28;20211;-69
2023/06/01 09:32:41;;;;;;;9.15;4.78;;;21.70;99.90;;;;;;4974739;28;20213;-69
2023/06/01 09:35:08;;;;;;;7.30;4.38;;;21.60;99.90;;;;;;4974438;28;20223;-68
2023/06/01 09:37:35;;;;;;;7.07;4.05;;;21.70;99.90;;;;;;4974451;28;20724;-71
2023/06/01 09:40:16;;;;;;;9.77;5.13;;;21.90;99.90;;;;;;4973261;28;20199;-68
2023/06/01 09:42:43;;;;;;;7.97;4.82;;;21.80;99.90;;;;;;4974289;28;20214;-68
2023/06/01 09:45:17;;;;;;;7.50;4.60;;;21.70;99.90;;;;;;4974302;28;20237;-68
2023/06/01 09:47:43;;;;;;;8.10;4.28;;;21.20;99.90;;;;;;4974687;28;20561;-71
2023/06/01 09:50:11;;;;;;;7.90;4.60;;;20.60;99.90;;;;;;4991991;28;20209;-70
2023/06/01 09:52:38;;;;;;;6.05;4.10;;;20.40;99.90;;;;;;4992782;28;20210;-71
2023/06/01 09:55:10;;;;;;;6.32;4.53;;;20.40;99.90;;;;;;4993233;28;20222;-72
2023/06/01 09:57:37;;;;;;;8.95;4.68;;;20.50;99.90;;;;;;4985538;28;20249;-73
2023/06/01 10:00:05;;;;;;;11.70;5.25;;;20.60;99.90;;;;;;4987500;28;20740;-68
2023/06/01 10:02:34;;;;;;;8.00;5.18;;;20.80;99.90;;;;;;4993354;28;20211;-68
2023/06/01 10:05:01;;;;;;;10.43;5.80;;;21.10;99.90;;;;;;4999309;28;20227;-67
2023/06/01 10:07:29;;;;;;;8.00;5.15;;;21.10;99.90;;;;;;5006949;28;20203;-68
2023/06/01 10:09:58;;;;;;;7.15;4.63;;;20.80;99.90;;;;;;4993188;28;20206;-68
2023/06/01 10:12:28;;;;;;;9.18;5.38;;;20.40;99.90;;;;;;4993276;28;20221;-68
2023/06/01 10:14:56;;;;;;;9.32;5.22;;;20.00;99.90;;;;;;4992920;28;20324;-68
2023/06/01 10:17:23;;;;;;;7.83;4.37;;;19.80;99.90;;;;;;4993226;28;20238;-69
2023/06/01 10:19:50;;;;;;;9.60;4.85;;;19.80;99.90;;;;;;4993008;28;20208;-69
2023/06/01 10:22:18;;;;;;;9.77;5.23;;;19.60;99.90;;;;;;4993502;28;20221;-68
2023/06/01 10:24:45;;;;;;;7.43;4.43;;;19.60;99.90;;;;;;4976264;28;20706;-71
2023/06/01 10:27:19;;;;;;;9.50;4.65;;;19.80;99.90;;;;;;4985933;28;20257;-71
2023/06/01 10:29:48;;;;;;;10.40;4.45;;;20.00;99.90;;;;;;4991752;28;20296;-69
2023/06/01 10:32:44;;;;;;;7.90;4.60;;;20.10;99.90;;;;;;4991781;28;20202;-69
2023/06/01 10:35:53;;;;;;;8.02;4.35;;;20.00;99.90;;;;;;4991744;28;20325;-68
2023/06/01 10:38:27;;;;;;;9.85;4.97;;;19.80;99.90;;;;;;4996295;28;20283;-68
2023/06/01 10:41:14;;;;;;;7.75;4.22;;;19.70;99.90;;;;;;4991396;28;20213;-69
2023/06/01 10:43:42;;;;;;;11.77;4.97;;;19.90;99.90;;;;;;4990891;28;20222;-68
2023/06/01 10:46:35;;;;;;;6.00;4.07;;;19.90;99.90;;;;;;4992775;28;20550;-68
2023/06/01 10:49:03;;;;;;;7.22;4.18;;;19.90;99.90;;;;;;4992851;28;20246;-68
2023/06/01 10:51:30;;;;;;;11.10;4.63;;;20.00;99.90;;;;;;4994015;28;20225;-68
2023/06/01 10:54:27;;;;;;;8.13;4.70;;;20.10;99.90;;;;;;4996364;28;20313;-68
2023/06/01 10:57:22;;;;;;;7.05;4.07;;;20.30;99.90;;;;;;4996775;28;20233;-68
2023/06/01 11:00:17;;;;;;;8.30;4.53;;;20.30;99.90;;;;;;4996666;28;20211;-68
2023/06/01 11:02:48;;;;;;;8.00;4.43;;;20.30;99.90;;;;;;4996079;28;20203;-69
2023/06/01 11:05:37;;;;;;;7.43;4.60;;;20.30;99.90;;;;;;4996701;28;20237;-68
2023/06/01 11:08:04;;;;;;;9.77;4.45;;;20.50;99.90;;;;;;4996538;28;20297;-68
2023/06/01 11:10:57;;;;;;;6.15;3.80;;;20.70;99.90;;;;;;4996193;28;20213;-69
2023/06/01 11:13:27;;;;;;;7.45;3.67;;;20.70;99.10;;;;;;4994472;28;20214;-68
2023/06/01 11:16:35;;;;;;;9.23;4.22;;;20.70;99.50;;;;;;4996475;28;20293;-68
2023/06/01 11:19:03;;;;;;;7.85;3.72;;;20.70;99.00;;;;;;4995812;28;20210;-69
2023/06/01 11:21:34;;;;;;;10.90;5.03;;;20.60;99.30;;;;;;4994585;28;20450;-68
2023/06/01 11:24:06;;;;;;;8.32;4.88;;;20.50;99.50;;;;;;4995726;28;20227;-69
2023/06/01 11:26:37;;;;;;;8.13;4.60;;;20.60;99.80;;;;;;4995855;28;20234;-69
2023/06/01 11:29:10;;;;;;;11.05;4.85;;;20.60;99.40;;;;;;4995914;28;20206;-69
2023/06/01 11:31:41;;;;;;;10.25;5.82;;;20.70;99.90;;;;;;4995697;28;20210;-70
2023/06/01 11:34:09;;;;;;;11.45;5.05;;;20.90;99.90;;;;;;4995345;28;20564;-70
2023/06/01 11:36:40;;;;;;;10.95;5.15;;;20.80;99.50;;;;;;4995587;28;20218;-70
2023/06/01 11:39:20;;;;;;;12.20;5.25;;;20.80;99.90;;;;;;4995370;28;20257;-70
2023/06/01 11:41:47;;;;;;;8.93;4.88;;;20.90;99.70;;;;;;4995825;28;20206;-71
2023/06/01 11:44:14;;;;;;;8.20;4.50;;;20.60;99.90;;;;;;4992274;28;20227;-70
2023/06/01 11:46:53;;;;;;;9.88;5.75;;;20.70;99.90;;;;;;4996492;28;20212;-70
2023/06/01 11:49:20;;;;;;;9.10;4.90;;;20.90;99.90;;;;;;4995693;28;20687;-71
2023/06/01 11:51:47;;;;;;;10.48;5.10;;;21.00;99.70;;;;;;4995732;28;20210;-72
2023/06/01 11:54:14;;;;;;;11.75;5.43;;;21.10;99.70;;;;;;4995225;28;20317;-67
2023/06/01 11:56:42;;;;;;;8.52;5.07;;;21.20;99.60;;;;;;4995439;28;20206;-68
2023/06/01 11:59:09;;;;;;;10.68;5.13;;;21.30;99.90;;;;;;4995343;28;20221;-68
2023/06/01 12:01:42;;;;;;;10.85;4.60;;;21.30;99.90;;;;;;4995253;28;20202;-68
2023/06/01 12:04:13;;;;;;;9.07;4.85;;;21.30;99.90;;;;;;4994273;28;20226;-68
2023/06/01 12:06:40;;;;;;;9.20;4.80;;;21.30;99.40;;;;;;4995201;28;20209;-69
2023/06/01 12:09:08;;;;;;;12.20;4.90;;;21.20;99.90;;;;;;4994828;28;20297;-67
2023/06/01 12:11:35;;;;;;;11.27;5.15;;;21.20;99.50;;;;;;4994456;28;20237;-68
2023/06/01 12:14:05;;;;;;;10.98;5.22;;;21.40;99.70;;;;;;4994455;28;20664;-68
2023/06/01 12:16:53;;;;;;;8.70;4.65;;;21.30;99.00;;;;;;4995023;28;20221;-68
2023/06/01 12:19:22;;;;;;;10.77;4.90;;;21.30;99.40;;;;;;4995156;28;20217;-68
2023/06/01 12:21:50;;;;;;;10.98;5.18;;;21.40;98.60;;;;;;4994866;28;20222;-68
2023/06/01 12:24:17;;;;;;;9.40;4.93;;;21.40;98.50;;;;;;4994693;28;20234;-68
2023/06/01 12:26:44;;;;;;;9.55;5.13;;;21.50;98.60;;;;;;4994539;28;20206;-69
2023/06/01 12:29:11;;;;;;;10.18;5.03;;;21.40;99.30;;;;;;4994935;28;20300;-68
2023/06/01 12:31:38;;;;;;;10.55;5.05;;;21.30;98.60;;;;;;4994864;28;20198;-67
2023/06/01 12:34:17;;;;;;;10.85;5.28;;;21.30;98.50;;;;;;4994458;28;20605;-67
2023/06/01 12:36:45;;;;;;;9.35;5.10;;;21.40;98.60;;;;;;4994542;28;20214;-68
2023/06/01 12:39:12;;;;;;;7.22;3.95;;;21.50;97.60;;;;;;4994164;28;20237;-67
2023/06/01 12:41:50;;;;;;;6.03;3.83;;;21.60;97.80;;;;;;4994567;28;20249;-67
2023/06/01 12:44:21;;;;;;;7.50;4.45;;;21.50;97.90;;;;;;4994094;28;20229;-68
2023/06/01 12:46:48;;;;;;;9.90;4.30;;;21.50;97.60;;;;;;4992296;28;20214;-69
2023/06/01 12:49:17;;;;;;;7.95;4.50;;;21.60;98.10;;;;;;4994650;28;20218;-69
2023/06/01 12:51:46;;;;;;;8.90;4.32;;;21.80;98.30;;;;;;4994229;28;20198;-69
2023/06/01 12:54:13;;;;;;;6.40;3.80;;;21.90;98.50;;;;;;4994666;28;20308;-68
2023/06/01 12:56:40;;;;;;;5.78;3.67;;;21.80;96.30;;;;;;4993835;28;20216;-68
2023/06/01 12:59:07;;;;;;;7.10;3.85;;;21.80;95.10;;;;;;4994333;28;20238;-68
2023/06/01 13:01:34;;;;;;;9.13;4.32;;;21.90;96.20;;;;;;4994123;28;20213;-69
2023/06/01 13:04:03;;;;;;;7.22;3.63;;;21.90;96.60;;;;;;4994400;28;20222;-68
2023/06/01 13:06:30;;;;;;;9.68;4.50;;;22.00;97.40;;;;;;4994134;28;20214;-68
2023/06/01 13:08:58;;;;;;;9.23;4.43;;;22.00;97.50;;;;;;4993886;28;20688;-69
2023/06/01 13:11:25;;;;;;;7.03;3.72;;;22.00;98.20;;;;;;4993971;28;20209;-68
2023/06/01 13:13:52;;;;;;;8.98;4.18;;;22.10;99.00;;;;;;4994007;28;20222;-67
2023/06/01 13:16:19;;;;;;;6.25;3.65;;;22.20;98.30;;;;;;4993701;28;20210;-69
2023/06/01 13:18:47;;;;;;;7.82;3.92;;;22.20;98.00;;;;;;4993849;28;20621;-67
2023/06/01 13:21:14;;;;;;;10.15;4.68;;;22.20;97.40;;;;;;4991540;28;20215;-67
2023/06/01 13:23:42;;;;;;;8.23;4.60;;;22.10;97.90;;;;;;4995121;28;20712;-67
2023/06/01 13:26:10;;;;;;;7.57;3.70;;;22.20;97.90;;;;;;4993612;28;20205;-68
2023/06/01 13:28:37;;;;;;;7.07;3.92;;;22.20;97.50;;;;;;4993477;28;20213;-67
2023/06/01 13:31:04;;;;;;;6.82;3.75;;;22.10;97.80;;;;;;4993934;28;20206;-68
2023/06/01 13:33:32;;;;;;;8.02;4.80;;;22.10;97.60;;;;;;4994143;28;20227;-67
2023/06/01 13:35:59;;;;;;;7.28;4.45;;;22.40;96.10;;;;;;4993500;28;20663;-69
2023/06/01 13:38:26;;;;;;;8.45;3.95;;;22.60;96.10;;;;;;4993313;28;20230;-68
2023/06/01 13:40:53;;;;;;;7.75;4.10;;;22.50;97.00;;;;;;4993243;28;20293;-68
2023/06/01 13:43:21;;;;;;;8.10;3.83;;;22.40;96.70;;;;;;4993231;28;20220;-68
2023/06/01 13:45:48;;;;;;;5.85;3.50;;;22.50;95.80;;;;;;4994010;28;20297;-67
2023/06/01 13:48:15;;;;;;;6.80;3.70;;;22.50;94.90;;;;;;4993888;28;20565;-68
2023/06/01 13:50:42;;;;;;;8.82;4.00;;;22.30;94.40;;;;;;4993253;28;20214;-68
2023/06/01 13:53:09;;;;;;;8.80;4.10;;;22.20;95.20;;;;;;4992457;28;20639;-68
2023/06/01 13:55:38;;;;;;;9.82;5.35;;;22.40;96.80;;;;;;4993186;28;20285;-68
2023/06/01 13:58:05;;;;;;;10.55;4.13;;;22.30;96.30;;;;;;4993208;28;20245;-68
2023/06/01 14:00:33;;;;;;;10.55;4.80;;;22.30;96.60;;;;;;4993566;28;20713;-68
2023/06/01 14:03:00;;;;;;;8.65;4.35;;;22.30;97.30;;;;;;4993311;28;20215;-67
2023/06/01 14:05:27;;;;;;;8.68;4.28;;;22.40;97.30;;;;;;4993197;28;20218;-68
2023/06/01 14:07:54;;;;;;;9.50;4.30;;;22.50;98.00;;;;;;4993200;28;20206;-67
2023/06/01 14:10:21;;;;;;;11.45;4.47;;;22.60;97.20;;;;;;4993054;28;20202;-68
2023/06/01 14:12:47;;;;;;;7.65;4.03;;;22.70;97.10;;;;;;4993022;28;20314;-67
2023/06/01 14:15:15;;;;;;;8.20;3.58;;;22.70;96.90;;;;;;4993163;28;20317;-69
2023/06/01 14:17:43;;;;;;;6.45;4.07;;;22.70;96.80;;;;;;4992710;28;20317;-68
2023/06/01 14:20:11;;;;;;;7.15;3.55;;;22.70;96.80;;;;;;4993102;28;20289;-68
2023/06/01 14:22:37;;;;;;;4.60;3.15;;;22.60;96.90;;;;;;4980342;28;20214;-68
2023/06/01 14:25:05;;;;;;;7.03;3.13;;;22.50;96.90;;;;;;4995732;28;20727;-69
2023/06/01 14:27:32;;;;;;;6.63;3.33;;;22.50;97.30;;;;;;4996383;28;20212;-71
2023/06/01 14:30:00;;;;;;;4.93;3.00;;;22.50;96.50;;;;;;4997016;28;20289;-70
2023/06/01 14:32:27;;;;;;;7.32;3.17;;;22.60;97.30;;;;;;4997054;28;20207;-71
2023/06/01 14:34:55;;;;;;;5.82;2.78;;;22.50;97.10;;;;;;4996953;28;20776;-69
2023/06/01 14:37:22;;;;;;;7.40;3.28;;;22.50;96.90;;;;;;4996891;28;20218;-70
2023/06/01 14:39:49;;;;;;;8.52;2.95;;;22.50;96.30;;;;;;4996636;28;20232;-70
2023/06/01 14:42:16;;;;;;;5.40;2.90;;;22.40;95.90;;;;;;4996498;28;20696;-67
2023/06/01 14:44:43;;;;;;;6.40;2.97;;;22.30;95.90;;;;;;4996679;28;20232;-69
2023/06/01 14:47:11;;;;;;;4.47;2.47;;;22.10;95.90;;;;;;4996336;28;20198;-69
2023/06/01 14:49:38;;;;;;;4.68;2.30;;;22.10;96.70;;;;;;4996810;28;20220;-69
2023/06/01 14:52:06;;;;;;;4.88;2.42;;;22.10;97.40;;;;;;4995863;28;20203;-68
2023/06/01 14:54:33;;;;;;;3.95;2.33;;;22.20;96.80;;;;;;4995989;28;20780;-70
2023/06/01 14:57:01;;;;;;;4.95;2.40;;;22.20;96.70;;;;;;4996465;28;20295;-68
2023/06/01 14:59:28;;;;;;;5.88;2.60;;;22.20;97.40;;;;;;4996534;28;20692;-68
2023/06/01 15:01:54;;;;;;;5.97;2.63;;;22.30;97.70;;;;;;4996372;28;20213;-68
2023/06/01 15:04:21;;;;;;;4.50;2.30;;;22.50;97.80;;;;;;4996044;28;20660;-67
2023/06/01 15:06:48;;;;;;;5.20;2.40;;;22.60;96.90;;;;;;4996675;28;20210;-68
2023/06/01 15:09:16;;;;;;;4.82;2.10;;;22.50;97.00;;;;;;4996176;28;20288;-67
2023/06/01 15:11:44;;;;;;;4.88;2.55;;;22.30;96.80;;;;;;4996250;28;20213;-68
2023/06/01 15:14:11;;;;;;;4.95;2.28;;;22.10;95.80;;;;;;4995705;28;20223;-69
2023/06/01 15:16:38;;;;;;;8.02;2.20;;;22.10;96.30;;;;;;4995880;28;20199;-67
2023/06/01 15:19:04;;;;;;;5.85;2.50;;;22.20;95.30;;;;;;4995899;28;20233;-68
2023/06/01 15:21:31;;;;;;;3.80;2.13;;;22.30;94.80;;;;;;4995887;28;20203;-68
2023/06/01 15:23:58;;;;;;;4.15;2.40;;;22.10;96.20;;;;;;4994209;28;20236;-67
2023/06/01 15:26:26;;;;;;;4.80;2.28;;;22.10;96.60;;;;;;4995968;28;20207;-68
2023/06/01 15:28:53;;;;;;;6.93;2.70;;;22.10;96.50;;;;;;4996084;28;20203;-68
2023/06/01 15:31:20;;;;;;;3.75;2.30;;;21.90;96.70;;;;;;4995793;28;20209;-68
2023/06/01 15:33:47;;;;;;;5.30;2.70;;;21.80;97.00;;;;;;4995655;28;20240;-69
2023/06/01 15:36:14;;;;;;;5.28;2.40;;;21.80;96.90;;;;;;4995567;28;20635;-69
2023/06/01 15:38:41;;;;;;;4.65;2.55;;;21.80;97.30;;;;;;4994162;28;20236;-69
2023/06/01 15:41:08;;;;;;;5.47;2.15;;;21.80;96.40;;;;;;4995353;28;20202;-69
2023/06/01 15:43:37;;;;;;;5.65;2.58;;;22.00;95.70;;;;;;4995524;28;20313;-69
2023/06/01 15:46:04;;;;;;;5.07;2.38;;;22.00;96.10;;;;;;4995224;28;20213;-70
2023/06/01 15:48:31;;;;;;;4.93;2.50;;;21.80;96.60;;;;;;4995430;28;20213;-70
2023/06/01 15:50:58;;;;;;;5.10;2.40;;;21.70;96.50;;;;;;4995338;28;20297;-68
2023/06/01 15:53:25;;;;;;;5.63;2.72;;;21.80;97.10;;;;;;4994628;28;20212;-68
2023/06/01 15:55:52;;;;;;;3.88;2.35;;;21.80;96.20;;;;;;4995193;28;20207;-70
2023/06/01 15:58:19;;;;;;;8.52;2.78;;;21.70;96.40;;;;;;4995027;28;20230;-70
2023/06/01 16:00:47;;;;;;;5.53;2.22;;;21.60;96.50;;;;;;4995200;28;20302;-69
2023/06/01 16:03:13;;;;;;;4.95;2.80;;;21.50;96.60;;;;;;4994557;28;20294;-68
2023/06/01 16:05:40;;;;;;;5.55;2.72;;;21.50;96.70;;;;;;4995303;28;20289;-68
2023/06/01 16:08:07;;;;;;;5.43;2.78;;;21.40;96.80;;;;;;4994356;28;20206;-68
2023/06/01 16:10:34;;;;;;;4.72;2.65;;;21.50;96.10;;;;;;4994493;28;20646;-67
2023/06/01 16:13:01;;;;;;;5.68;2.70;;;21.50;95.90;;;;;;4994079;28;20661;-68
2023/06/01 16:15:28;;;;;;;4.88;2.60;;;21.30;97.20;;;;;;4995329;28;20222;-67
2023/06/01 16:17:56;;;;;;;10.55;3.05;;;21.30;97.70;;;;;;4994659;28;20301;-68
2023/06/01 16:20:23;;;;;;;7.05;2.70;;;21.30;98.10;;;;;;4994864;28;20238;-67
2023/06/01 16:22:50;;;;;;;6.72;3.13;;;21.20;98.40;;;;;;4994137;28;20206;-68
2023/06/01 16:25:22;;;;;;;6.22;3.35;;;21.20;98.40;;;;;;4992784;28;20237;-68
2023/06/01 16:27:49;;;;;;;5.25;3.25;;;21.30;98.50;;;;;;4994693;28;20234;-66
2023/06/01 16:30:16;;;;;;;5.10;2.75;;;21.30;98.50;;;;;;4988717;28;20206;-71
2023/06/01 16:32:43;;;;;;;6.88;2.92;;;21.30;98.70;;;;;;4993303;28;20205;-68
2023/06/01 16:35:11;;;;;;;5.15;2.58;;;21.40;98.60;;;;;;4992914;28;20237;-68
2023/06/01 16:37:38;;;;;;;5.50;2.70;;;21.30;98.50;;;;;;4992889;28;20210;-69
2023/06/01 16:40:05;;;;;;;6.78;2.63;;;21.40;98.70;;;;;;4993227;28;20270;-68
2023/06/01 16:42:32;;;;;;;5.10;2.88;;;21.20;99.00;;;;;;4992792;28;20202;-69
2023/06/01 16:44:59;;;;;;;5.13;3.03;;;21.20;99.20;;;;;;4992462;28;20609;-68
2023/06/01 16:47:27;;;;;;;5.97;2.80;;;21.00;99.60;;;;;;4992949;28;20244;-68
2023/06/01 16:49:54;;;;;;;6.20;2.90;;;21.00;99.70;;;;;;4992801;28;20210;-72
2023/06/01 16:52:22;;;;;;;7.20;3.25;;;20.80;99.80;;;;;;4992227;28;20207;-68
2023/06/01 16:54:53;;;;;;;6.75;3.03;;;20.80;99.80;;;;;;4992454;28;20793;-71
2023/06/01 16:57:20;;;;;;;8.18;3.17;;;20.80;99.60;;;;;;4993600;28;20213;-67
2023/06/01 16:59:46;;;;;;;8.07;3.03;;;20.80;99.80;;;;;;4992326;28;20238;-67
2023/06/01 17:02:13;;;;;;;4.95;3.25;;;20.90;99.40;;;;;;4995684;28;20202;-69
2023/06/01 17:04:40;;;;;;;8.65;3.30;;;21.00;99.40;;;;;;4997102;28;20641;-69
2023/06/01 17:07:07;;;;;;;6.82;3.20;;;20.80;99.50;;;;;;4992477;28;20668;-69
2023/06/01 17:09:35;;;;;;;4.90;3.20;;;20.80;99.70;;;;;;4994285;28;20221;-71
2023/06/01 17:12:02;;;;;;;5.30;3.00;;;20.70;99.90;;;;;;4993297;28;20209;-70
2023/06/01 17:14:30;;;;;;;6.50;2.95;;;20.80;99.90;;;;;;4993463;28;20233;-69
2023/06/01 17:16:57;;;;;;;5.88;2.78;;;20.70;99.90;;;;;;4993735;28;20289;-69
2023/06/01 17:19:23;;;;;;;4.78;2.65;;;20.50;99.90;;;;;;4984236;28;20231;-69
2023/06/01 17:21:50;;;;;;;8.63;3.80;;;20.60;99.90;;;;;;4990278;28;20238;-69
2023/06/01 17:24:17;;;;;;;7.22;3.13;;;20.60;99.90;;;;;;4989971;28;20306;-68
2023/06/01 17:26:46;;;;;;;6.03;2.85;;;20.60;99.90;;;;;;5000293;28;20206;-70
2023/06/01 17:29:14;;;;;;;8.63;3.47;;;20.50;99.90;;;;;;4996053;28;20670;-72
2023/06/01 17:31:41;;;;;;;7.53;2.95;;;20.70;99.90;;;;;;4995364;28;20207;-69
2023/06/01 17:34:08;;;;;;;7.90;3.80;;;20.70;99.90;;;;;;4992308;28;20701;-70
2023/06/01 17:36:36;;;;;;;7.75;3.13;;;20.70;99.90;;;;;;4993434;28;20740;-70
2023/06/01 17:39:03;;;;;;;5.82;3.15;;;20.60;99.70;;;;;;4993414;28;20254;-69
2023/06/01 17:41:30;;;;;;;10.95;4.03;;;20.50;99.80;;;;;;4993420;28;20217;-69
2023/06/01 17:43:58;;;;;;;6.90;3.17;;;20.50;99.60;;;;;;4992399;28;20566;-69
2023/06/01 17:46:25;;;;;;;9.52;3.33;;;20.10;99.90;;;;;;4974498;28;20243;-69
2023/06/01 17:48:52;;;;;;;6.47;3.10;;;20.00;99.90;;;;;;4992958;28;20233;-70
2023/06/01 17:51:19;;;;;;;6.78;3.05;;;20.00;99.90;;;;;;4993166;28;20206;-70
2023/06/01 17:53:46;;;;;;;6.72;3.25;;;19.90;99.90;;;;;;4993195;28;20576;-70
2023/06/01 17:56:13;;;;;;;7.13;3.08;;;20.00;99.90;;;;;;4992343;28;20270;-69
2023/06/01 17:58:40;;;;;;;8.68;3.40;;;19.90;99.90;;;;;;4992459;28;20206;-69
2023/06/01 18:01:08;;;;;;;8.50;3.40;;;19.90;99.90;;;;;;4992459;28;20301;-69
2023/06/01 18:03:35;;;;;;;7.53;3.20;;;19.80;99.90;;;;;;4992998;28;20326;-68
2023/06/01 18:06:02;;;;;;;8.40;3.80;;;19.60;99.90;;;;;;4993211;28;20206;-68
2023/06/01 18:08:29;;;;;;;5.80;3.03;;;19.50;99.90;;;;;;4993106;28;20626;-68
2023/06/01 18:10:59;;;;;;;6.00;3.30;;;19.50;99.90;;;;;;4992919;28;20661;-69
2023/06/01 18:13:25;;;;;;;5.82;3.00;;;19.40;99.90;;;;;;4993153;28;20234;-69
2023/06/01 18:15:52;;;;;;;3.97;2.85;;;19.20;99.90;;;;;;4992798;28;20295;-69
2023/06/01 18:18:20;;;;;;;4.83;2.83;;;19.10;99.90;;;;;;4992923;28;20216;-69
2023/06/01 18:20:47;;;;;;;5.07;2.57;;;18.90;99.90;;;;;;4993368;28;20248;-69
2023/06/01 18:23:14;;;;;;;4.43;2.90;;;18.80;99.90;;;;;;4992852;28;20250;-69
2023/06/01 18:25:41;;;;;;;6.47;3.13;;;18.80;99.90;;;;;;4993270;28;20206;-69
2023/06/01 18:28:08;;;;;;;4.53;3.03;;;18.60;99.90;;;;;;4992882;28;20202;-69
2023/06/01 18:30:35;;;;;;;6.87;3.30;;;18.40;99.90;;;;;;4993263;28;20213;-69
2023/06/01 18:33:02;;;;;;;4.37;3.00;;;18.40;99.90;;;;;;4992004;28;20209;-69
2023/06/01 18:35:30;;;;;;;6.50;2.90;;;18.30;99.90;;;;;;4993103;28;20243;-69
2023/06/01 18:37:57;;;;;;;4.83;2.73;;;18.30;99.90;;;;;;4993818;28;20230;-70
2023/06/01 18:40:24;;;;;;;5.07;2.87;;;18.30;99.90;;;;;;4992762;28;20601;-70
2023/06/01 18:42:51;;;;;;;4.77;2.80;;;18.00;99.90;;;;;;4992685;28;20234;-69
2023/06/01 18:45:18;;;;;;;5.10;2.40;;;17.90;99.90;;;;;;4992789;28;20309;-68
2023/06/01 18:47:44;;;;;;;6.93;2.70;;;18.10;99.90;;;;;;4992858;28;20199;-68
2023/06/01 18:50:11;;;;;;;4.33;2.40;;;18.00;99.90;;;;;;4992783;28;20301;-68
2023/06/01 18:52:41;;;;;;;4.43;2.40;;;17.80;99.90;;;;;;4992852;28;20584;-68
2023/06/01 18:55:11;;;;;;;2.67;2.00;;;17.60;99.90;;;;;;4992825;28;20249;-68
2023/06/01 18:57:37;;;;;;;3.80;2.10;;;17.40;99.90;;;;;;4992925;28;20203;-68
2023/06/01 19:00:05;;;;;;;3.00;1.90;;;17.20;99.90;;;;;;4988243;28;20249;-68
2023/06/01 19:02:32;;;;;;;4.03;1.97;;;17.20;99.90;;;;;;4986598;28;20669;-68
2023/06/01 19:05:02;;;;;;;4.67;2.13;;;17.20;99.90;;;;;;4980322;28;20231;-68
2023/06/01 19:07:35;;;;;;;3.63;2.10;;;17.00;99.90;;;;;;4977678;28;20235;-68
2023/06/01 19:10:07;;;;;;;2.97;2.20;;;17.00;99.90;;;;;;4983949;28;20199;-68
2023/06/01 19:12:34;;;;;;;2.73;1.90;;;16.90;99.90;;;;;;4989894;28;20213;-68
2023/06/01 19:15:01;;;;;;;2.13;1.63;;;16.70;99.90;;;;;;4987292;28;20226;-68
2023/06/01 19:17:28;;;;;;;3.00;1.90;;;16.60;99.90;;;;;;4987971;28;20296;-68
2023/06/01 19:19:56;;;;;;;2.80;1.87;;;16.40;99.90;;;;;;4989647;28;20234;-68
2023/06/01 19:22:29;;;;;;;3.40;1.37;;;16.40;99.90;;;;;;4994506;28;20206;-68
2023/06/01 19:24:56;;;;;;;2.77;1.70;;;16.30;99.90;;;;;;4978312;28;20227;-68
2023/06/01 19:27:24;;;;;;;5.37;1.50;;;16.10;99.90;;;;;;4993531;28;20323;-68
2023/06/01 19:29:51;;;;;;;2.17;1.57;;;16.10;99.90;;;;;;4988181;28;20296;-68
2023/06/01 19:32:18;;;;;;;2.50;1.73;;;15.70;99.90;;;;;;4992901;28;20203;-68
2023/06/01 19:34:45;;;;;;;3.63;1.50;;;15.70;99.90;;;;;;4993147;28;20313;-69
2023/06/01 19:37:13;;;;;;;2.97;1.50;;;15.70;99.90;;;;;;4990254;28;20700;-68
2023/06/01 19:39:42;;;;;;;2.40;1.63;;;15.40;99.90;;;;;;4987643;28;20234;-68
2023/06/01 19:42:33;;;;;;;2.67;1.63;;;15.20;99.90;;;;;;4992971;28;20210;-68
2023/06/01 19:45:00;;;;;;;2.50;1.70;;;15.10;99.90;;;;;;4990657;28;20226;-68
2023/06/01 19:47:39;;;;;;;2.30;1.70;;;15.00;99.90;;;;;;4988402;28;20206;-68
2023/06/01 19:50:17;;;;;;;3.90;1.90;;;14.80;99.90;;;;;;4990601;28;20221;-68
2023/06/01 19:52:44;;;;;;;2.30;1.33;;;14.90;99.90;;;;;;4986389;28;20207;-68
2023/06/01 19:55:13;;;;;;;5.30;1.70;;;15.00;99.90;;;;;;4989300;28;20618;-68
2023/06/01 19:57:41;;;;;;;2.73;1.40;;;14.90;99.90;;;;;;4983973;28;20212;-68
2023/06/01 20:00:09;;;;;;;4.13;1.80;;;14.80;99.90;;;;;;4989973;28;20234;-68
2023/06/01 20:02:45;;;;;;;5.67;1.60;;;14.70;99.90;;;;;;4984034;28;20270;-68
2023/06/01 20:05:13;;;;;;;2.90;1.93;;;14.80;99.90;;;;;;4991168;28;20230;-68
2023/06/01 20:07:40;;;;;;;4.00;1.90;;;14.70;99.90;;;;;;4989035;28;20213;-69
2023/06/01 20:10:16;;;;;;;5.23;2.10;;;14.60;99.90;;;;;;4991391;28;20213;-67
2023/06/01 20:12:44;;;;;;;3.77;2.10;;;14.50;99.90;;;;;;4992735;28;20213;-67
2023/06/01 20:15:11;;;;;;;2.97;2.03;;;14.50;99.90;;;;;;4984526;28;20230;-68
2023/06/01 20:17:38;;;;;;;4.07;1.97;;;14.30;99.90;;;;;;4994849;28;20210;-68
2023/06/01 20:20:06;;;;;;;5.17;1.73;;;14.30;99.90;;;;;;4988544;28;20341;-68
2023/06/01 20:22:34;;;;;;;6.07;1.83;;;14.30;99.90;;;;;;4992662;28;20217;-68
2023/06/01 20:25:02;;;;;;;5.20;2.27;;;14.40;99.90;;;;;;4985632;28;20225;-68
2023/06/01 20:27:32;;;;;;;2.60;1.50;;;14.40;99.90;;;;;;4991446;28;20305;-68
2023/06/01 20:30:02;;;;;;;4.37;1.60;;;14.50;99.90;;;;;;4987062;28;20210;-67
2023/06/01 20:32:29;;;;;;;5.53;1.80;;;14.50;99.90;;;;;;4991754;28;20206;-68
2023/06/01 20:34:56;;;;;;;3.00;1.53;;;14.50;99.90;;;;;;4979203;28;20233;-68
2023/06/01 20:37:23;;;;;;;2.87;1.60;;;14.50;99.90;;;;;;4988951;28;20207;-68
2023/06/01 20:39:51;;;;;;;3.07;1.47;;;14.60;99.90;;;;;;4978117;28;20237;-69
2023/06/01 20:42:18;;;;;;;4.30;1.50;;;14.70;99.90;;;;;;4989520;28;20215;-67
2023/06/01 20:44:45;;;;;;;5.03;1.90;;;14.70;99.90;;;;;;4986149;28;20238;-69
2023/06/01 20:47:17;;;;;;;1.93;1.63;;;14.60;99.90;;;;;;4990082;28;20274;-69
2023/06/01 20:49:44;;;;;;;4.30;1.70;;;14.70;99.90;;;;;;4987252;28;20213;-69
2023/06/01 20:52:12;;;;;;;3.03;1.60;;;14.90;99.90;;;;;;4986169;28;20294;-70
2023/06/01 20:54:39;;;;;;;4.80;2.10;;;14.80;99.90;;;;;;4987104;28;20321;-69
2023/06/01 20:57:08;;;;;;;2.43;1.63;;;14.90;99.90;;;;;;4988188;28;20211;-69
2023/06/01 20:59:34;;;;;;;4.33;1.90;;;14.80;99.90;;;;;;4989727;28;20214;-68
2023/06/01 21:02:05;;;;;;;3.57;1.70;;;14.80;99.90;;;;;;4989436;28;20214;-69
2023/06/01 21:04:35;;;;;;;3.73;1.90;;;14.80;99.90;;;;;;4988454;28;20313;-68
2023/06/01 21:07:02;;;;;;;4.63;2.20;;;14.80;99.90;;;;;;4985712;28;20229;-68
2023/06/01 21:09:29;;;;;;;4.47;1.67;;;14.80;99.90;;;;;;4988321;28;20292;-69
2023/06/01 21:11:57;;;;;;;3.07;2.10;;;14.70;99.90;;;;;;4988233;28;20202;-68
2023/06/01 21:14:25;;;;;;;6.33;1.73;;;14.70;99.90;;;;;;4992132;28;20222;-68
2023/06/01 21:16:52;;;;;;;2.53;1.87;;;14.70;99.90;;;;;;4988836;28;20261;-69
2023/06/01 21:19:19;;;;;;;2.67;1.60;;;14.40;99.90;;;;;;4991239;28;20214;-68
2023/06/01 21:21:47;;;;;;;3.57;1.70;;;14.40;99.90;;;;;;4985868;28;20288;-68
2023/06/01 21:24:14;;;;;;;4.03;2.00;;;14.40;99.90;;;;;;4992889;28;20597;-68
2023/06/01 21:26:41;;;;;;;3.70;2.00;;;14.20;99.90;;;;;;4993459;28;20273;-68
2023/06/01 21:29:09;;;;;;;2.53;1.90;;;14.20;99.90;;;;;;4993586;28;20214;-69
2023/06/01 21:31:36;;;;;;;3.10;2.07;;;14.10;99.90;;;;;;4992873;28;20289;-68